createdAt,value
2019-01-30T00:02:15.857Z,-0.29
2019-01-30T00:04:44.461Z,-0.35
2019-01-30T00:07:13.103Z,-0.33
2019-01-30T00:09:41.737Z,-0.33
2019-01-30T00:12:10.347Z,-0.34
2019-01-30T00:14:38.946Z,-0.39
2019-01-30T00:17:07.572Z,-0.36
2019-01-30T00:19:36.165Z,-0.41
2019-01-30T00:22:05.135Z,-0.42
2019-01-30T00:24:33.713Z,-0.47
2019-01-30T00:27:02.348Z,-0.49
2019-01-30T00:29:31.293Z,-0.48
2019-01-30T00:31:59.833Z,-0.40
2019-01-30T00:34:28.529Z,-0.43
2019-01-30T00:36:57.261Z,-0.44
2019-01-30T00:39:25.961Z,-0.48
2019-01-30T00:41:54.531Z,-0.48
2019-01-30T00:44:23.155Z,-0.46
2019-01-30T00:46:51.832Z,-0.55
2019-01-30T00:49:20.465Z,-0.51
2019-01-30T00:51:49.074Z,-0.56
2019-01-30T00:54:17.692Z,-0.56
2019-01-30T00:56:46.357Z,-0.58
2019-01-30T00:59:14.941Z,-0.55
2019-01-30T01:01:43.562Z,-0.49
2019-01-30T01:04:12.271Z,-0.57
2019-01-30T01:06:40.920Z,-0.48
2019-01-30T01:09:10.460Z,-0.69
2019-01-30T01:11:39.087Z,-0.69
2019-01-30T01:14:07.782Z,-0.68
2019-01-30T01:16:36.357Z,-0.70
2019-01-30T01:19:04.982Z,-0.74
2019-01-30T01:21:33.653Z,-0.69
2019-01-30T01:24:02.348Z,-0.72
2019-01-30T01:26:30.931Z,-0.78
2019-01-30T01:28:59.590Z,-0.72
2019-01-30T01:31:28.137Z,-0.74
2019-01-30T01:33:56.793Z,-0.68
2019-01-30T01:36:25.384Z,-0.72
2019-01-30T01:38:53.993Z,-0.70
2019-01-30T01:41:22.621Z,-0.68
2019-01-30T01:43:51.266Z,-0.68
2019-01-30T01:46:19.859Z,-0.95
2019-01-30T01:48:48.499Z,-0.68
2019-01-30T01:51:17.121Z,-0.64
2019-01-30T01:53:45.713Z,-0.52
2019-01-30T01:56:14.286Z,-0.55
2019-01-30T01:58:42.952Z,-0.57
2019-01-30T02:01:11.538Z,-0.64
2019-01-30T02:03:40.547Z,-0.65
2019-01-30T02:06:15.158Z,-0.64
2019-01-30T02:08:43.937Z,-0.70
2019-01-30T02:11:13.099Z,-0.78
2019-01-30T02:13:41.742Z,-0.82
2019-01-30T02:16:10.358Z,-0.82
2019-01-30T02:18:38.960Z,-0.92
2019-01-30T02:21:07.544Z,-0.98
2019-01-30T02:23:36.182Z,-0.97
2019-01-30T02:26:04.762Z,-0.88
2019-01-30T02:28:33.379Z,-0.89
2019-01-30T02:31:02.007Z,-0.87
2019-01-30T02:33:30.723Z,-0.80
2019-01-30T02:35:59.318Z,-0.92
2019-01-30T02:38:27.905Z,-0.82
2019-01-30T02:40:56.553Z,-0.83
2019-01-30T02:43:25.177Z,-0.84
2019-01-30T02:45:53.826Z,-0.79
2019-01-30T02:48:22.513Z,-0.82
2019-01-30T02:50:51.483Z,-0.82
2019-01-30T02:53:20.091Z,-0.83
2019-01-30T02:55:48.750Z,-0.77
2019-01-30T02:58:17.395Z,-0.82
2019-01-30T03:00:46.035Z,-0.85
2019-01-30T03:03:14.648Z,-0.85
2019-01-30T03:05:43.223Z,-0.87
2019-01-30T03:08:11.880Z,-0.83
2019-01-30T03:10:40.541Z,-0.86
2019-01-30T03:13:09.172Z,-0.84
2019-01-30T03:15:57.096Z,-0.88
2019-01-30T03:18:25.686Z,-0.84
2019-01-30T03:20:54.287Z,-0.82
2019-01-30T03:23:22.964Z,-0.73
2019-01-30T03:25:51.620Z,-0.75
2019-01-30T03:28:20.242Z,-0.71
2019-01-30T03:30:48.846Z,-0.72
2019-01-30T03:33:17.505Z,-0.70
2019-01-30T03:35:46.056Z,-0.71
2019-01-30T03:38:14.694Z,-0.67
2019-01-30T03:40:43.306Z,-0.61
2019-01-30T03:43:11.901Z,-0.63
2019-01-30T03:45:40.513Z,-0.66
2019-01-30T03:48:09.093Z,-0.68
2019-01-30T03:50:37.698Z,-0.67
2019-01-30T03:53:06.313Z,-0.57
2019-01-30T03:55:34.913Z,-0.65
2019-01-30T03:58:03.572Z,-0.66
2019-01-30T04:00:32.181Z,-0.68
2019-01-30T04:03:00.801Z,-0.58
2019-01-30T04:05:29.452Z,-0.56
2019-01-30T04:07:58.093Z,-0.58
2019-01-30T04:10:26.678Z,-0.51
2019-01-30T04:12:55.364Z,-0.50
2019-01-30T04:15:24.014Z,-0.48
2019-01-30T04:17:52.615Z,-0.52
2019-01-30T04:20:21.270Z,-0.48
2019-01-30T04:22:49.810Z,-0.45
2019-01-30T04:25:18.406Z,-0.48
2019-01-30T04:27:47.025Z,-0.51
2019-01-30T04:30:20.961Z,-0.44
2019-01-30T04:32:49.597Z,-0.41
2019-01-30T04:35:18.169Z,-0.36
2019-01-30T04:37:46.761Z,-0.40
2019-01-30T04:40:17.146Z,-0.40
2019-01-30T04:42:45.733Z,-0.29
2019-01-30T04:45:17.255Z,-0.25
2019-01-30T04:47:45.894Z,-0.34
2019-01-30T04:50:14.571Z,-0.28
2019-01-30T04:52:43.194Z,-0.24
2019-01-30T04:55:11.800Z,-0.17
2019-01-30T04:57:40.395Z,-0.13
2019-01-30T05:00:10.946Z,-0.09
2019-01-30T05:02:39.608Z,0.00
2019-01-30T05:05:09.321Z,-0.18
2019-01-30T05:07:37.963Z,-0.13
2019-01-30T05:10:07.559Z,-0.11
2019-01-30T05:12:36.142Z,-0.17
2019-01-30T05:15:06.338Z,-0.02
2019-01-30T05:17:34.924Z,-0.15
2019-01-30T05:20:03.728Z,-0.21
2019-01-30T05:22:33.282Z,-0.17
2019-01-30T05:25:01.931Z,-0.12
2019-01-30T05:27:30.611Z,-0.12
2019-01-30T05:29:59.232Z,-0.21
2019-01-30T05:32:27.792Z,-0.26
2019-01-30T05:34:56.374Z,-0.22
2019-01-30T05:37:24.975Z,-0.23
2019-01-30T05:39:53.574Z,-0.22
2019-01-30T05:42:22.169Z,-0.23
2019-01-30T05:44:50.838Z,-0.21
2019-01-30T05:47:19.418Z,-0.17
2019-01-30T05:49:48.395Z,-0.04
2019-01-30T05:52:16.985Z,-0.23
2019-01-30T05:54:45.646Z,-0.18
2019-01-30T05:57:14.282Z,-0.26
2019-01-30T05:59:42.871Z,-0.19
2019-01-30T06:02:12.530Z,-0.22
2019-01-30T06:04:41.393Z,-0.18
2019-01-30T06:07:09.967Z,-0.13
2019-01-30T06:09:38.603Z,-0.12
2019-01-30T06:12:07.233Z,-0.07
2019-01-30T06:14:35.844Z,-0.10
2019-01-30T06:17:05.014Z,0.03
2019-01-30T06:19:33.690Z,-0.02
2019-01-30T06:22:02.302Z,-0.11
2019-01-30T06:24:32.765Z,-0.20
2019-01-30T06:27:01.433Z,-0.29
2019-01-30T06:29:30.024Z,-0.38
2019-01-30T06:31:58.781Z,-0.36
2019-01-30T06:34:27.354Z,-0.42
2019-01-30T06:36:55.966Z,-0.44
2019-01-30T06:39:24.594Z,-0.62
2019-01-30T06:41:53.282Z,-0.65
2019-01-30T06:44:21.890Z,-0.77
2019-01-30T06:46:50.541Z,-0.88
2019-01-30T06:49:19.159Z,-0.82
2019-01-30T06:51:47.789Z,-0.91
2019-01-30T06:54:16.459Z,-0.99
2019-01-30T06:56:45.083Z,-1.06
2019-01-30T06:59:13.709Z,-1.10
2019-01-30T07:01:42.378Z,-1.11
2019-01-30T07:04:10.987Z,-1.13
2019-01-30T07:06:39.581Z,-1.17
2019-01-30T07:09:10.598Z,-1.09
2019-01-30T07:11:39.195Z,-1.13
2019-01-30T07:14:07.861Z,-1.18
2019-01-30T07:16:36.443Z,-1.13
2019-01-30T07:19:05.093Z,-1.05
2019-01-30T07:21:33.766Z,-1.14
2019-01-30T07:24:02.408Z,-1.17
2019-01-30T07:26:31.017Z,-1.19
2019-01-30T07:28:59.599Z,-1.15
2019-01-30T07:31:28.187Z,-1.19
2019-01-30T07:33:56.861Z,-1.12
2019-01-30T07:36:25.472Z,-1.07
2019-01-30T07:38:54.044Z,-1.10
2019-01-30T07:41:22.670Z,-1.12
2019-01-30T07:43:51.271Z,-0.94
2019-01-30T07:46:19.967Z,-1.14
2019-01-30T07:48:48.627Z,-1.16
2019-01-30T07:51:17.269Z,-1.17
2019-01-30T07:53:46.019Z,-1.14
2019-01-30T07:56:14.773Z,-1.25
2019-01-30T07:58:43.453Z,-1.20
2019-01-30T08:01:12.959Z,-1.14
2019-01-30T08:03:41.591Z,-1.20
2019-01-30T08:06:12.827Z,-1.13
2019-01-30T08:08:42.754Z,-1.14
2019-01-30T08:11:11.425Z,-1.12
2019-01-30T08:13:40.013Z,-1.16
2019-01-30T08:16:10.072Z,-1.17
2019-01-30T08:18:42.280Z,-1.14
2019-01-30T08:21:13.703Z,-1.07
2019-01-30T08:23:45.341Z,-1.02
2019-01-30T08:26:14.152Z,-1.12
2019-01-30T08:28:42.845Z,-1.06
2019-01-30T08:31:13.580Z,-1.04
2019-01-30T08:33:42.221Z,-0.82
2019-01-30T08:36:10.830Z,-0.77
2019-01-30T08:38:39.471Z,-0.72
2019-01-30T08:41:08.062Z,-0.90
2019-01-30T08:43:36.700Z,-0.85
2019-01-30T08:46:05.342Z,-0.79
2019-01-30T08:48:33.961Z,-0.76
2019-01-30T08:51:02.639Z,-0.84
2019-01-30T08:53:31.277Z,-0.83
2019-01-30T08:55:59.903Z,-0.78
2019-01-30T08:58:28.556Z,-0.75
2019-01-30T09:00:57.163Z,-0.73
2019-01-30T09:03:25.798Z,-0.73
2019-01-30T09:05:54.372Z,-0.63
2019-01-30T09:08:22.972Z,-0.59
2019-01-30T09:10:51.584Z,-0.55
2019-01-30T09:13:20.192Z,-0.59
2019-01-30T09:15:48.801Z,-0.63
2019-01-30T09:18:17.419Z,-0.64
2019-01-30T09:20:46.009Z,-0.58
2019-01-30T09:23:14.624Z,-0.35
2019-01-30T09:25:43.285Z,-0.28
2019-01-30T09:28:12.986Z,-0.17
2019-01-30T09:30:41.635Z,-0.08
2019-01-30T09:33:11.296Z,0.01
2019-01-30T09:35:39.980Z,0.09
2019-01-30T09:38:08.576Z,0.12
2019-01-30T09:40:37.253Z,0.10
2019-01-30T09:43:06.054Z,0.12
2019-01-30T09:45:34.720Z,0.10
2019-01-30T09:48:03.405Z,0.15
2019-01-30T09:50:34.198Z,0.14
2019-01-30T09:53:02.751Z,0.06
2019-01-30T09:55:31.330Z,0.06
2019-01-30T09:57:59.911Z,0.15
2019-01-30T10:00:33.131Z,0.19
2019-01-30T10:03:01.955Z,0.18
2019-01-30T10:05:30.521Z,0.16
2019-01-30T10:07:59.166Z,0.16
2019-01-30T10:10:32.378Z,0.18
2019-01-30T10:13:00.969Z,0.24
2019-01-30T10:15:32.458Z,0.18
2019-01-30T10:18:01.244Z,0.30
2019-01-30T10:20:30.082Z,0.31
2019-01-30T10:22:58.697Z,0.42
2019-01-30T10:25:27.263Z,0.48
2019-01-30T10:27:55.850Z,0.44
2019-01-30T10:30:26.899Z,0.51
2019-01-30T10:32:55.513Z,0.52
2019-01-30T10:35:24.164Z,0.56
2019-01-30T10:37:52.741Z,0.58
2019-01-30T10:40:21.385Z,0.73
2019-01-30T10:42:50.004Z,0.85
2019-01-30T10:45:18.842Z,0.73
2019-01-30T10:47:47.572Z,0.82
2019-01-30T10:50:18.599Z,0.83
2019-01-30T10:52:48.015Z,0.83
2019-01-30T10:55:18.439Z,0.85
2019-01-30T10:57:50.147Z,0.93
2019-01-30T11:00:21.223Z,0.89
2019-01-30T11:02:49.847Z,0.90
2019-01-30T11:05:18.430Z,0.90
2019-01-30T11:07:47.093Z,0.90
2019-01-30T11:10:17.159Z,1.02
2019-01-30T11:12:45.881Z,0.98
2019-01-30T11:15:16.572Z,0.92
2019-01-30T11:17:45.364Z,0.99
2019-01-30T11:20:15.583Z,0.92
2019-01-30T11:22:44.292Z,0.97
2019-01-30T11:25:21.951Z,0.95
2019-01-30T11:27:50.542Z,1.02
2019-01-30T11:30:19.518Z,1.06
2019-01-30T11:32:48.148Z,1.07
2019-01-30T11:35:16.830Z,1.02
2019-01-30T11:37:45.415Z,1.16
2019-01-30T11:40:15.070Z,1.02
2019-01-30T11:42:43.722Z,1.23
2019-01-30T11:45:18.183Z,1.15
2019-01-30T11:47:46.765Z,1.52
2019-01-30T11:50:15.463Z,1.52
2019-01-30T11:52:44.148Z,1.39
2019-01-30T11:55:13.351Z,1.35
2019-01-30T11:57:41.952Z,1.30
2019-01-30T12:00:14.941Z,1.36
2019-01-30T12:02:47.948Z,1.51
2019-01-30T12:05:14.616Z,1.55
2019-01-30T12:07:43.328Z,1.55
2019-01-30T12:10:11.952Z,1.48
2019-01-30T12:12:40.676Z,1.49
2019-01-30T12:15:12.845Z,1.59
2019-01-30T12:17:41.453Z,1.61
2019-01-30T12:20:10.881Z,1.72
2019-01-30T12:22:39.482Z,1.73
2019-01-30T12:25:09.097Z,1.69
2019-01-30T12:27:37.950Z,1.62
2019-01-30T12:30:11.594Z,1.68
2019-01-30T12:32:40.228Z,1.85
2019-01-30T12:35:08.828Z,1.83
2019-01-30T12:37:37.464Z,1.78
2019-01-30T12:40:06.704Z,1.84
2019-01-30T12:42:35.576Z,1.94
2019-01-30T12:45:05.437Z,1.91
2019-01-30T12:47:34.073Z,2.00
2019-01-30T12:50:02.707Z,2.03
2019-01-30T12:52:31.547Z,1.72
2019-01-30T12:55:00.205Z,2.11
2019-01-30T12:57:29.072Z,2.06
2019-01-30T12:59:57.743Z,2.05
2019-01-30T13:02:26.344Z,2.10
2019-01-30T13:04:54.968Z,2.04
2019-01-30T13:07:23.567Z,1.98
2019-01-30T13:09:52.174Z,2.12
2019-01-30T13:12:20.801Z,2.04
2019-01-30T13:14:49.388Z,2.05
2019-01-30T13:17:17.998Z,2.06
2019-01-30T13:19:46.616Z,2.02
2019-01-30T13:22:15.238Z,2.06
2019-01-30T13:24:43.884Z,2.08
2019-01-30T13:27:12.517Z,2.05
2019-01-30T13:29:41.213Z,2.00
2019-01-30T13:32:09.825Z,2.07
2019-01-30T13:34:48.617Z,1.91
2019-01-30T13:37:08.875Z,1.66
2019-01-30T13:39:37.497Z,1.87
2019-01-30T13:42:06.085Z,1.86
2019-01-30T13:44:34.744Z,1.88
2019-01-30T13:47:03.336Z,1.86
2019-01-30T13:49:31.901Z,1.84
2019-01-30T13:52:00.530Z,1.79
2019-01-30T13:54:29.216Z,1.75
2019-01-30T13:56:57.823Z,1.72
2019-01-30T13:59:26.426Z,1.76
2019-01-30T14:01:54.985Z,1.79
2019-01-30T14:04:23.633Z,1.76
2019-01-30T14:06:52.228Z,1.78
2019-01-30T14:09:20.878Z,1.71
2019-01-30T14:11:49.532Z,1.64
2019-01-30T14:14:18.157Z,1.61
2019-01-30T14:16:46.825Z,1.59
2019-01-30T14:19:15.465Z,1.57
2019-01-30T14:21:44.127Z,1.61
2019-01-30T14:24:12.764Z,1.59
2019-01-30T14:26:41.421Z,1.62
2019-01-30T14:29:10.009Z,1.51
2019-01-30T14:31:38.585Z,1.44
2019-01-30T14:34:07.250Z,1.53
2019-01-30T14:36:35.861Z,1.56
2019-01-30T14:39:07.045Z,1.40
2019-01-30T14:41:35.942Z,1.29
2019-01-30T14:44:04.540Z,1.27
2019-01-30T14:46:33.185Z,1.22
2019-01-30T14:49:01.852Z,1.13
2019-01-30T14:51:30.709Z,1.15
2019-01-30T14:53:59.240Z,1.13
2019-01-30T14:56:27.853Z,1.12
2019-01-30T14:58:56.438Z,1.05
2019-01-30T15:01:25.066Z,1.00
2019-01-30T15:03:53.750Z,1.01
2019-01-30T15:06:22.356Z,1.03
2019-01-30T15:08:51.094Z,1.09
2019-01-30T15:11:19.675Z,1.03
2019-01-30T15:13:48.277Z,1.07
2019-01-30T15:16:16.980Z,1.13
2019-01-30T15:18:45.766Z,1.08
2019-01-30T15:21:14.535Z,1.06
2019-01-30T15:23:43.108Z,1.09
2019-01-30T15:26:11.752Z,1.10
2019-01-30T15:28:40.388Z,1.12
2019-01-30T15:31:08.972Z,1.09
2019-01-30T15:33:37.613Z,1.07
2019-01-30T15:36:06.283Z,1.04
2019-01-30T15:38:34.896Z,1.03
2019-01-30T15:41:03.440Z,1.08
2019-01-30T15:43:32.093Z,1.07
2019-01-30T15:46:02.852Z,1.13
2019-01-30T15:48:31.448Z,1.08
2019-01-30T15:51:00.099Z,1.04
2019-01-30T15:53:29.097Z,1.08
2019-01-30T15:55:57.789Z,1.01
2019-01-30T15:58:26.365Z,1.02
2019-01-30T16:00:58.976Z,0.95
2019-01-30T16:03:27.647Z,0.92
2019-01-30T16:05:56.272Z,0.92
2019-01-30T16:08:24.888Z,0.96
2019-01-30T16:10:53.636Z,0.86
2019-01-30T16:13:22.238Z,0.81
2019-01-30T16:15:56.699Z,0.72
2019-01-30T16:18:25.321Z,0.75
2019-01-30T16:20:53.950Z,0.67
2019-01-30T16:23:22.545Z,0.68
2019-01-30T16:25:51.234Z,0.72
2019-01-30T16:28:19.836Z,0.75
2019-01-30T16:30:48.496Z,0.77
2019-01-30T16:33:17.152Z,0.78
2019-01-30T16:35:55.651Z,0.78
2019-01-30T16:38:16.174Z,0.74
2019-01-30T16:40:44.802Z,0.74
2019-01-30T16:43:13.499Z,0.72
2019-01-30T16:45:42.119Z,0.75
2019-01-30T16:48:10.774Z,0.76
2019-01-30T16:50:39.388Z,0.75
2019-01-30T16:53:08.710Z,0.80
2019-01-30T16:55:38.079Z,0.78
2019-01-30T16:58:08.989Z,0.83
2019-01-30T17:00:37.754Z,0.77
2019-01-30T17:03:06.509Z,0.76
2019-01-30T17:05:35.221Z,0.76
2019-01-30T17:08:03.844Z,0.75
2019-01-30T17:10:32.469Z,0.76
2019-01-30T17:13:01.171Z,0.78
2019-01-30T17:15:33.034Z,0.79
2019-01-30T17:18:01.838Z,0.81
2019-01-30T17:20:32.761Z,0.83
2019-01-30T17:23:01.420Z,0.85
2019-01-30T17:25:30.036Z,0.86
2019-01-30T17:27:58.622Z,0.84
2019-01-30T17:30:32.834Z,0.86
2019-01-30T17:33:01.530Z,0.85
2019-01-30T17:35:30.301Z,0.84
2019-01-30T17:37:58.923Z,0.82
2019-01-30T17:40:27.551Z,0.85
2019-01-30T17:42:56.164Z,0.85
2019-01-30T17:45:25.015Z,0.83
2019-01-30T17:47:53.609Z,0.82
2019-01-30T17:50:23.543Z,0.90
2019-01-30T17:52:52.227Z,0.88
2019-01-30T17:55:20.846Z,0.87
2019-01-30T17:57:49.397Z,0.93
2019-01-30T18:00:33.115Z,0.82
2019-01-30T18:03:01.729Z,0.86
2019-01-30T18:05:30.341Z,0.80
2019-01-30T18:07:58.968Z,0.78
2019-01-30T18:10:27.615Z,0.73
2019-01-30T18:12:56.226Z,0.79
2019-01-30T18:15:24.886Z,0.71
2019-01-30T18:17:54.404Z,0.57
2019-01-30T18:20:23.416Z,0.54
2019-01-30T18:22:52.008Z,0.49
2019-01-30T18:25:20.665Z,0.51
2019-01-30T18:27:49.231Z,0.46
2019-01-30T18:30:18.304Z,0.45
2019-01-30T18:32:46.884Z,0.48
2019-01-30T18:35:15.571Z,0.52
2019-01-30T18:37:44.229Z,0.62
2019-01-30T18:40:15.405Z,0.54
2019-01-30T18:42:44.028Z,0.53
2019-01-30T18:45:15.422Z,0.53
2019-01-30T18:47:44.048Z,0.58
2019-01-30T18:50:15.559Z,0.58
2019-01-30T18:52:44.287Z,0.59
2019-01-30T18:55:12.870Z,0.65
2019-01-30T18:57:41.483Z,0.68
2019-01-30T19:00:14.740Z,0.65
2019-01-30T19:02:43.380Z,0.66
2019-01-30T19:05:11.992Z,0.68
2019-01-30T19:07:40.591Z,0.69
2019-01-30T19:10:11.408Z,0.76
2019-01-30T19:12:40.065Z,0.76
2019-01-30T19:15:12.419Z,0.73
2019-01-30T19:17:41.503Z,0.75
2019-01-30T19:20:12.946Z,0.78
2019-01-30T19:22:41.567Z,0.77
2019-01-30T19:25:10.154Z,0.78
2019-01-30T19:27:38.866Z,0.77
2019-01-30T19:30:11.725Z,0.77
2019-01-30T19:32:40.354Z,0.79
2019-01-30T19:35:09.712Z,0.79
2019-01-30T19:37:38.334Z,0.78
2019-01-30T19:40:06.920Z,0.80
2019-01-30T19:42:35.567Z,0.76
2019-01-30T19:45:05.199Z,0.74
2019-01-30T19:47:33.856Z,0.71
2019-01-30T19:50:02.421Z,0.71
2019-01-30T19:52:31.158Z,0.60
2019-01-30T19:54:59.731Z,0.61
2019-01-30T19:57:28.374Z,0.52
2019-01-30T19:59:57.063Z,0.48
2019-01-30T20:02:25.648Z,0.42
2019-01-30T20:04:54.394Z,0.40
2019-01-30T20:07:23.086Z,0.44
2019-01-30T20:09:51.725Z,0.39
2019-01-30T20:12:20.420Z,0.38
2019-01-30T20:14:49.024Z,0.36
2019-01-30T20:17:17.668Z,0.36
2019-01-30T20:19:46.294Z,0.38
2019-01-30T20:22:14.913Z,0.37
2019-01-30T20:24:43.552Z,0.43
2019-01-30T20:27:12.218Z,0.46
2019-01-30T20:29:40.821Z,0.53
2019-01-30T20:32:09.519Z,0.56
2019-01-30T20:34:38.110Z,0.56
2019-01-30T20:37:06.705Z,0.54
2019-01-30T20:39:35.342Z,0.54
2019-01-30T20:42:04.066Z,0.64
2019-01-30T20:44:32.648Z,0.62
2019-01-30T20:47:01.242Z,0.62
2019-01-30T20:49:29.802Z,0.65
2019-01-30T20:51:58.426Z,0.66
2019-01-30T20:54:27.025Z,0.70
2019-01-30T20:56:55.608Z,0.66
2019-01-30T20:59:24.167Z,0.66
2019-01-30T21:01:52.734Z,0.63
2019-01-30T21:04:21.411Z,0.63
2019-01-30T21:06:49.985Z,0.59
2019-01-30T21:09:18.584Z,0.58
2019-01-30T21:11:47.214Z,0.55
2019-01-30T21:14:15.834Z,0.64
2019-01-30T21:16:44.451Z,0.57
2019-01-30T21:19:13.204Z,0.59
2019-01-30T21:21:41.884Z,0.56
2019-01-30T21:24:10.515Z,0.52
2019-01-30T21:26:39.082Z,0.50
2019-01-30T21:29:07.783Z,0.51
2019-01-30T21:31:36.430Z,0.46
2019-01-30T21:34:04.968Z,0.44
2019-01-30T21:36:33.628Z,0.40
2019-01-30T21:39:02.224Z,0.52
2019-01-30T21:41:30.820Z,0.40
2019-01-30T21:43:59.418Z,0.48
2019-01-30T21:46:27.977Z,0.42
2019-01-30T21:48:56.633Z,0.37
2019-01-30T21:51:25.194Z,0.35
2019-01-30T21:53:53.782Z,0.29
2019-01-30T21:56:22.392Z,0.36
2019-01-30T21:58:50.995Z,0.29
2019-01-30T22:01:20.769Z,0.20
2019-01-30T22:03:49.418Z,0.15
2019-01-30T22:06:17.999Z,0.15
2019-01-30T22:08:46.648Z,0.17
2019-01-30T22:11:15.348Z,0.15
2019-01-30T22:13:44.088Z,0.10
2019-01-30T22:16:12.712Z,0.10
2019-01-30T22:18:41.375Z,0.07
2019-01-30T22:21:10.020Z,0.03
2019-01-30T22:23:38.602Z,-0.07
2019-01-30T22:26:07.154Z,-0.05
2019-01-30T22:28:35.753Z,-0.12
2019-01-30T22:31:04.405Z,-0.13
2019-01-30T22:33:33.018Z,-0.13
2019-01-30T22:36:01.625Z,-0.11
2019-01-30T22:38:30.255Z,-0.23
2019-01-30T22:40:58.830Z,-0.33
2019-01-30T22:43:27.461Z,-0.35
2019-01-30T22:45:56.197Z,-0.41
2019-01-30T22:48:24.811Z,-0.55
2019-01-30T22:50:53.486Z,-0.61
2019-01-30T22:53:22.107Z,-0.77
2019-01-30T22:55:50.706Z,-0.87
2019-01-30T22:58:19.305Z,-1.01
2019-01-30T23:01:06.066Z,-1.03
2019-01-30T23:03:51.905Z,-0.95
2019-01-30T23:06:50.470Z,-0.89
2019-01-30T23:09:55.527Z,-1.02
2019-01-30T23:12:49.932Z,-0.99
2019-01-30T23:15:31.427Z,-1.06
2019-01-30T23:18:34.405Z,-1.05
2019-01-30T23:21:11.713Z,-1.28
2019-01-30T23:24:02.589Z,-1.34
2019-01-30T23:26:39.317Z,-1.23
2019-01-30T23:29:55.084Z,-1.24
2019-01-30T23:33:10.843Z,-1.22
2019-01-30T23:36:32.852Z,-1.26
2019-01-30T23:39:40.325Z,-1.23
2019-01-30T23:42:46.084Z,-1.21
2019-01-30T23:46:08.131Z,-1.25
2019-01-30T23:49:07.495Z,-1.24
2019-01-30T23:52:09.276Z,-1.32
2019-01-30T23:55:15.606Z,-1.50
2019-01-30T23:57:56.221Z,-1.69
